createdAt,value
2022-08-07T00:01:43.746Z,45.39
2022-08-07T00:04:47.182Z,45.44
2022-08-07T00:07:46.435Z,45.51
2022-08-07T00:10:57.406Z,45.55
2022-08-07T00:14:07.757Z,45.57
2022-08-07T00:17:11.473Z,45.62
2022-08-07T00:20:29.961Z,45.68
2022-08-07T00:23:37.791Z,45.71
2022-08-07T00:26:59.026Z,45.74
2022-08-07T00:29:56.960Z,45.80
2022-08-07T00:32:53.994Z,45.85
2022-08-07T00:35:51.113Z,45.90
2022-08-07T00:38:45.609Z,45.93
2022-08-07T00:42:01.973Z,45.84
2022-08-07T00:44:59.560Z,45.98
2022-08-07T00:48:08.915Z,46.04
2022-08-07T00:51:07.718Z,46.06
2022-08-07T00:54:04.315Z,46.12
2022-08-07T00:57:00.698Z,46.16
2022-08-07T00:59:53.952Z,46.16
2022-08-07T01:02:52.989Z,46.08
2022-08-07T01:06:09.871Z,46.21
2022-08-07T01:10:04.196Z,46.22
2022-08-07T01:12:54.495Z,46.27
2022-08-07T01:16:05.598Z,46.33
2022-08-07T01:19:14.827Z,46.38
2022-08-07T01:22:22.595Z,46.39
2022-08-07T01:25:53.807Z,46.45
2022-08-07T01:28:36.749Z,46.46
2022-08-07T01:31:42.340Z,46.52
2022-08-07T01:34:47.371Z,46.53
2022-08-07T01:37:45.165Z,46.56
2022-08-07T01:40:41.468Z,46.61
2022-08-07T01:43:38.100Z,46.64
2022-08-07T01:46:35.211Z,46.65
2022-08-07T01:49:31.877Z,46.69
2022-08-07T01:52:27.670Z,46.71
2022-08-07T01:55:24.236Z,46.75
2022-08-07T01:58:27.175Z,46.78
2022-08-07T02:02:01.942Z,46.81
2022-08-07T02:04:58.085Z,46.83
2022-08-07T02:08:02.909Z,46.88
2022-08-07T02:11:03.474Z,46.87
2022-08-07T02:14:03.920Z,46.81
2022-08-07T02:17:02.674Z,46.91
2022-08-07T02:20:05.246Z,46.94
2022-08-07T02:23:06.579Z,46.98
2022-08-07T02:26:30.799Z,47.03
2022-08-07T02:29:18.266Z,47.06
2022-08-07T02:32:17.077Z,47.14
2022-08-07T02:35:20.430Z,47.13
2022-08-07T02:38:38.372Z,47.11
2022-08-07T02:41:37.367Z,47.13
2022-08-07T02:44:34.721Z,47.15
2022-08-07T02:47:44.918Z,47.18
2022-08-07T02:50:46.221Z,47.19
2022-08-07T02:53:41.458Z,47.22
2022-08-07T02:56:43.290Z,47.26
2022-08-07T02:59:43.945Z,47.27
2022-08-07T03:02:58.106Z,47.29
2022-08-07T03:05:57.560Z,47.31
2022-08-07T03:09:01.094Z,47.34
2022-08-07T03:12:02.895Z,47.36
2022-08-07T03:15:07.775Z,47.39
2022-08-07T03:18:06.678Z,47.40
2022-08-07T03:21:08.926Z,47.42
2022-08-07T03:24:20.721Z,47.44
2022-08-07T03:27:30.762Z,47.46
2022-08-07T03:30:42.578Z,47.48
2022-08-07T03:33:41.413Z,47.52
2022-08-07T03:36:40.199Z,47.53
2022-08-07T03:39:59.922Z,47.57
2022-08-07T03:43:02.901Z,47.57
2022-08-07T03:46:04.523Z,47.59
2022-08-07T03:49:21.847Z,47.59
2022-08-07T03:52:27.047Z,47.63
2022-08-07T03:55:58.064Z,47.66
2022-08-07T03:59:08.219Z,47.66
2022-08-07T04:02:10.123Z,47.69
2022-08-07T04:05:17.042Z,47.70
2022-08-07T04:08:18.708Z,47.70
2022-08-07T04:12:24.946Z,47.63
2022-08-07T04:14:49.812Z,47.56
2022-08-07T04:18:56.510Z,47.25
2022-08-07T04:21:07.552Z,47.08
2022-08-07T04:24:10.697Z,46.97
2022-08-07T04:27:27.524Z,46.98
2022-08-07T04:30:43.970Z,46.88
2022-08-07T04:33:56.425Z,46.87
2022-08-07T04:36:55.841Z,46.81
2022-08-07T04:39:54.778Z,46.72
2022-08-07T04:42:54.466Z,46.56
2022-08-07T04:46:12.491Z,46.66
2022-08-07T04:49:38.435Z,46.60
2022-08-07T04:52:51.002Z,46.58
2022-08-07T04:58:15.884Z,46.59
2022-08-07T05:00:11.476Z,46.55
2022-08-07T05:02:51.537Z,46.41
2022-08-07T05:05:57.594Z,46.30
2022-08-07T05:09:07.935Z,46.17
2022-08-07T05:12:27.292Z,46.03
2022-08-07T05:15:37.516Z,45.92
2022-08-07T05:18:42.163Z,45.86
2022-08-07T05:21:59.963Z,45.78
2022-08-07T05:25:08.504Z,45.70
2022-08-07T05:28:20.980Z,45.41
2022-08-07T05:31:34.594Z,45.38
2022-08-07T05:34:37.328Z,45.32
2022-08-07T05:37:40.759Z,45.14
2022-08-07T05:40:50.306Z,45.23
2022-08-07T05:44:08.201Z,45.39
2022-08-07T05:47:18.158Z,45.53
2022-08-07T05:50:17.430Z,45.54
2022-08-07T05:54:09.541Z,45.79
2022-08-07T05:56:37.888Z,45.93
2022-08-07T05:59:58.060Z,46.04
2022-08-07T06:03:13.557Z,46.09
2022-08-07T06:06:19.035Z,46.15
2022-08-07T06:09:22.796Z,46.19
2022-08-07T06:12:51.003Z,46.39
2022-08-07T06:15:50.524Z,46.54
2022-08-07T06:18:55.845Z,46.39
2022-08-07T06:22:15.071Z,45.88
2022-08-07T06:25:22.945Z,45.46
2022-08-07T06:28:27.239Z,45.25
2022-08-07T06:31:47.278Z,45.25
2022-08-07T06:34:53.015Z,45.07
2022-08-07T06:37:53.005Z,44.97
2022-08-07T06:40:54.698Z,44.87
2022-08-07T06:43:59.429Z,44.71
2022-08-07T06:47:10.112Z,44.65
2022-08-07T06:50:13.332Z,44.45
2022-08-07T06:54:11.507Z,44.27
2022-08-07T06:56:50.659Z,44.26
2022-08-07T07:00:12.385Z,44.00
2022-08-07T07:03:39.541Z,43.90
2022-08-07T07:07:00.549Z,43.68
2022-08-07T07:10:09.117Z,43.53
2022-08-07T07:13:55.423Z,43.42
2022-08-07T07:16:54.725Z,43.28
2022-08-07T07:20:09.858Z,43.11
2022-08-07T07:24:08.949Z,42.98
2022-08-07T07:26:52.333Z,43.02
2022-08-07T07:30:10.094Z,43.06
2022-08-07T07:33:11.617Z,43.78
2022-08-07T07:36:20.892Z,44.22
2022-08-07T07:39:22.043Z,44.32
2022-08-07T07:42:33.278Z,44.68
2022-08-07T07:46:53.631Z,44.84
2022-08-07T07:49:08.932Z,44.92
2022-08-07T07:52:39.084Z,45.04
2022-08-07T07:55:54.851Z,45.16
2022-08-07T07:59:03.004Z,45.18
2022-08-07T08:02:05.313Z,45.29
2022-08-07T08:05:15.302Z,45.32
2022-08-07T08:08:34.763Z,45.40
2022-08-07T08:12:01.751Z,45.46
2022-08-07T08:15:15.157Z,45.55
2022-08-07T08:18:22.678Z,45.65
2022-08-07T08:22:00.484Z,45.75
2022-08-07T08:25:42.049Z,45.79
2022-08-07T08:28:55.543Z,45.85
2022-08-07T08:32:17.896Z,45.95
2022-08-07T08:35:23.015Z,46.00
2022-08-07T08:38:43.078Z,45.96
2022-08-07T08:41:57.022Z,46.11
2022-08-07T08:45:15.925Z,46.20
2022-08-07T08:48:42.878Z,46.29
2022-08-07T08:52:12.972Z,46.35
2022-08-07T08:55:54.414Z,46.41
2022-08-07T08:59:06.651Z,46.45
2022-08-07T09:02:34.679Z,46.55
2022-08-07T09:05:52.121Z,46.62
2022-08-07T09:09:21.165Z,46.65
2022-08-07T09:12:59.154Z,46.70
2022-08-07T09:16:23.130Z,46.75
2022-08-07T09:19:53.320Z,46.77
2022-08-07T09:24:28.880Z,46.72
2022-08-07T09:26:47.947Z,46.85
2022-08-07T09:30:18.160Z,46.94
2022-08-07T09:34:02.756Z,47.00
2022-08-07T09:37:10.935Z,47.06
2022-08-07T09:40:18.206Z,47.14
2022-08-07T09:44:03.384Z,47.15
2022-08-07T09:47:52.192Z,47.17
2022-08-07T09:50:59.383Z,47.21
2022-08-07T09:54:02.824Z,47.29
2022-08-07T09:57:53.799Z,47.33
2022-08-07T10:01:23.270Z,47.31
2022-08-07T10:04:57.212Z,47.35
2022-08-07T10:08:05.834Z,47.39
2022-08-07T10:12:00.031Z,47.42
2022-08-07T10:15:03.186Z,47.42
2022-08-07T10:18:39.169Z,47.47
2022-08-07T10:22:15.636Z,47.51
2022-08-07T10:25:42.501Z,47.55
2022-08-07T10:29:01.901Z,47.57
2022-08-07T10:32:37.018Z,47.55
2022-08-07T10:36:17.152Z,47.55
2022-08-07T10:40:02.985Z,47.59
2022-08-07T10:43:11.939Z,47.63
2022-08-07T10:46:26.403Z,47.65
2022-08-07T10:49:49.499Z,47.67
2022-08-07T10:53:08.964Z,47.68
2022-08-07T10:56:31.439Z,47.74
2022-08-07T11:00:39.308Z,47.81
2022-08-07T11:04:16.520Z,47.81
2022-08-07T11:07:59.662Z,47.84
2022-08-07T11:11:04.352Z,47.85
2022-08-07T11:14:45.309Z,47.85
2022-08-07T11:17:55.121Z,47.76
2022-08-07T11:21:14.183Z,47.34
2022-08-07T11:24:25.239Z,47.03
2022-08-07T11:28:02.806Z,46.83
2022-08-07T11:31:08.571Z,46.38
2022-08-07T11:34:37.236Z,46.25
2022-08-07T11:38:17.588Z,45.98
2022-08-07T11:42:02.050Z,45.66
2022-08-07T11:44:59.230Z,45.34
2022-08-07T11:48:29.706Z,44.83
2022-08-07T11:51:47.445Z,44.77
2022-08-07T11:55:13.140Z,44.43
2022-08-07T11:58:33.157Z,44.29
2022-08-07T12:02:02.288Z,44.09
2022-08-07T12:05:41.315Z,43.76
2022-08-07T12:08:44.063Z,43.76
2022-08-07T12:12:08.804Z,43.75
2022-08-07T12:16:05.400Z,43.69
2022-08-07T12:18:50.712Z,43.66
2022-08-07T12:22:37.500Z,43.60
2022-08-07T12:26:05.431Z,43.34
2022-08-07T12:29:38.785Z,43.18
2022-08-07T12:32:43.794Z,42.64
2022-08-07T12:35:48.197Z,42.61
2022-08-07T12:38:59.319Z,42.64
2022-08-07T12:42:10.282Z,42.75
2022-08-07T12:45:24.457Z,42.32
2022-08-07T12:48:53.290Z,42.22
2022-08-07T12:52:14.377Z,42.07
2022-08-07T12:55:41.434Z,42.34
2022-08-07T12:59:02.029Z,42.00
2022-08-07T13:02:19.089Z,41.92
2022-08-07T13:06:21.996Z,41.92
2022-08-07T13:10:28.391Z,42.02
2022-08-07T13:14:02.305Z,42.35
2022-08-07T13:17:39.943Z,41.98
2022-08-07T13:20:51.934Z,41.68
2022-08-07T13:24:04.637Z,41.82
2022-08-07T13:27:20.797Z,41.65
2022-08-07T13:30:40.319Z,41.82
2022-08-07T13:34:31.487Z,41.35
2022-08-07T13:37:27.481Z,41.00
2022-08-07T13:40:42.311Z,41.28
2022-08-07T13:43:56.112Z,41.09
2022-08-07T13:46:58.221Z,40.88
2022-08-07T13:50:35.896Z,40.57
2022-08-07T13:53:35.902Z,40.78
2022-08-07T13:57:05.005Z,40.64
2022-08-07T14:00:26.989Z,40.77
2022-08-07T14:04:06.741Z,40.68
2022-08-07T14:07:04.237Z,40.52
2022-08-07T14:10:27.938Z,40.35
2022-08-07T14:13:37.065Z,40.60
2022-08-07T14:16:50.898Z,40.76
2022-08-07T14:20:41.127Z,40.63
2022-08-07T14:23:59.117Z,40.82
2022-08-07T14:28:09.314Z,40.70
2022-08-07T14:30:33.019Z,40.83
2022-08-07T14:33:44.130Z,40.46
2022-08-07T14:36:56.241Z,40.36
2022-08-07T14:43:57.910Z,39.98
2022-08-07T14:47:14.346Z,40.19
2022-08-07T14:50:27.181Z,40.34
2022-08-07T14:54:09.847Z,39.94
2022-08-07T14:56:55.068Z,40.17
2022-08-07T15:00:06.875Z,39.64
2022-08-07T15:03:16.485Z,40.01
2022-08-07T15:06:19.324Z,40.04
2022-08-07T15:09:47.102Z,40.17
2022-08-07T15:12:55.267Z,40.72
2022-08-07T15:16:14.672Z,40.92
2022-08-07T15:20:16.174Z,41.14
2022-08-07T15:22:53.966Z,41.32
2022-08-07T15:26:07.614Z,41.22
2022-08-07T15:30:04.653Z,41.22
2022-08-07T15:40:11.297Z,41.59
2022-08-07T15:43:53.661Z,41.62
2022-08-07T15:46:51.726Z,41.79
2022-08-07T15:50:06.078Z,41.85
2022-08-07T15:53:09.150Z,41.65
2022-08-07T15:56:14.998Z,41.63
2022-08-07T15:59:39.239Z,41.47
2022-08-07T16:02:47.169Z,41.21
2022-08-07T16:05:57.429Z,41.02
2022-08-07T16:09:00.950Z,40.84
2022-08-07T16:12:28.716Z,40.46
2022-08-07T16:15:54.980Z,40.48
2022-08-07T16:19:42.239Z,40.75
2022-08-07T16:23:09.646Z,40.22
2022-08-07T16:27:04.334Z,39.84
2022-08-07T16:30:31.881Z,39.74
2022-08-07T16:34:01.404Z,39.86
2022-08-07T16:38:04.501Z,39.85
2022-08-07T16:41:41.610Z,39.85
2022-08-07T16:46:21.120Z,40.01
2022-08-07T16:50:28.672Z,39.93
2022-08-07T16:52:52.380Z,40.12
2022-08-07T16:56:13.566Z,39.80
2022-08-07T16:59:45.669Z,39.60
2022-08-07T17:03:17.195Z,39.57
2022-08-07T17:06:44.779Z,39.54
2022-08-07T17:10:06.284Z,39.66
2022-08-07T17:14:19.375Z,39.55
2022-08-07T17:17:46.129Z,39.48
2022-08-07T17:20:57.410Z,39.61
2022-08-07T17:24:06.324Z,39.77
2022-08-07T17:27:19.974Z,39.67
2022-08-07T17:30:35.115Z,39.47
2022-08-07T17:34:15.493Z,39.37
2022-08-07T17:37:14.237Z,39.41
2022-08-07T17:40:35.270Z,39.34
2022-08-07T17:44:02.198Z,39.36
2022-08-07T17:47:38.574Z,39.31
2022-08-07T17:51:01.655Z,39.28
2022-08-07T17:54:29.587Z,39.15
2022-08-07T17:58:02.308Z,39.25
2022-08-07T18:01:21.439Z,39.18
2022-08-07T18:04:34.742Z,39.17
2022-08-07T18:07:52.468Z,39.17
2022-08-07T18:12:07.996Z,39.15
2022-08-07T18:14:54.460Z,39.21
2022-08-07T18:18:47.543Z,39.18
2022-08-07T18:21:55.147Z,39.20
2022-08-07T18:25:19.309Z,39.33
2022-08-07T18:28:58.693Z,39.51
2022-08-07T18:32:31.530Z,39.59
2022-08-07T18:36:00.468Z,39.70
2022-08-07T18:40:06.916Z,39.78
2022-08-07T18:43:03.201Z,39.85
2022-08-07T18:46:25.456Z,39.97
2022-08-07T18:50:30.966Z,40.04
2022-08-07T18:53:36.746Z,40.14
2022-08-07T18:57:23.507Z,40.24
2022-08-07T19:00:34.593Z,40.38
2022-08-07T19:03:57.480Z,40.55
2022-08-07T19:07:34.423Z,40.63
2022-08-07T19:10:51.301Z,40.44
2022-08-07T19:14:16.993Z,40.21
2022-08-07T19:17:55.570Z,39.95
2022-08-07T19:21:44.326Z,39.90
2022-08-07T19:24:43.398Z,40.08
2022-08-07T19:30:56.847Z,40.23
2022-08-07T19:31:59.870Z,40.28
2022-08-07T19:35:09.689Z,40.43
2022-08-07T19:38:20.675Z,40.65
2022-08-07T19:41:44.223Z,40.80
2022-08-07T19:45:00.704Z,40.96
2022-08-07T19:48:24.461Z,41.17
2022-08-07T19:51:50.694Z,41.36
2022-08-07T19:55:02.888Z,41.47
2022-08-07T19:58:28.464Z,41.64
2022-08-07T20:01:57.878Z,41.85
2022-08-07T20:05:14.535Z,42.05
2022-08-07T20:08:20.354Z,42.26
2022-08-07T20:11:23.077Z,42.44
2022-08-07T20:14:58.526Z,42.44
2022-08-07T20:18:03.400Z,42.50
2022-08-07T20:21:21.234Z,42.63
2022-08-07T20:24:30.521Z,42.67
2022-08-07T20:27:48.308Z,42.70
2022-08-07T20:31:21.278Z,42.77
2022-08-07T20:34:50.764Z,42.87
2022-08-07T20:38:03.677Z,42.94
2022-08-07T20:41:18.916Z,43.01
2022-08-07T20:44:24.419Z,43.02
2022-08-07T20:47:56.512Z,43.10
2022-08-07T20:51:17.559Z,43.13
2022-08-07T20:54:29.732Z,43.22
2022-08-07T20:57:47.659Z,43.24
2022-08-07T21:01:19.313Z,43.28
2022-08-07T21:04:33.755Z,43.31
2022-08-07T21:07:50.070Z,43.34
2022-08-07T21:10:53.360Z,43.40
2022-08-07T21:14:16.476Z,43.43
2022-08-07T21:18:17.145Z,43.47
2022-08-07T21:20:57.596Z,43.51
2022-08-07T21:24:17.557Z,43.56
2022-08-07T21:27:39.914Z,43.62
2022-08-07T21:30:54.389Z,43.63
2022-08-07T21:33:59.534Z,43.69
2022-08-07T21:37:09.516Z,43.73
2022-08-07T21:40:28.127Z,43.78
2022-08-07T21:43:56.736Z,43.81
2022-08-07T21:47:04.366Z,43.88
2022-08-07T21:50:11.550Z,43.91
2022-08-07T21:53:21.112Z,43.96
2022-08-07T21:56:39.569Z,44.00
2022-08-07T22:00:04.924Z,44.04
2022-08-07T22:03:16.721Z,44.05
2022-08-07T22:06:31.070Z,44.15
2022-08-07T22:09:37.951Z,44.17
2022-08-07T22:12:59.615Z,44.20
2022-08-07T22:16:38.328Z,44.21
2022-08-07T22:19:41.538Z,44.23
2022-08-07T22:22:51.604Z,44.30
2022-08-07T22:26:05.833Z,44.29
2022-08-07T22:29:17.069Z,44.31
2022-08-07T22:32:26.703Z,44.32
2022-08-07T22:35:39.365Z,44.34
2022-08-07T22:38:51.897Z,44.37
2022-08-07T22:42:04.160Z,44.38
2022-08-07T22:46:40.482Z,44.38
2022-08-07T22:48:56.309Z,44.38
2022-08-07T22:52:37.819Z,44.41
2022-08-07T22:55:52.203Z,44.44
2022-08-07T22:59:17.343Z,44.48
2022-08-07T23:02:57.575Z,44.47
2022-08-07T23:06:24.178Z,44.50
2022-08-07T23:10:04.377Z,44.51
2022-08-07T23:13:17.365Z,44.53
2022-08-07T23:16:46.912Z,44.57
2022-08-07T23:20:06.338Z,44.63
2022-08-07T23:24:05.935Z,44.64
2022-08-07T23:27:10.798Z,44.67
2022-08-07T23:30:37.064Z,44.73
2022-08-07T23:34:23.578Z,44.76
2022-08-07T23:37:37.442Z,44.80
2022-08-07T23:41:00.637Z,44.81
2022-08-07T23:44:13.642Z,44.86
2022-08-07T23:47:29.581Z,44.88
2022-08-07T23:50:42.109Z,44.91
2022-08-07T23:53:50.860Z,44.95
2022-08-07T23:56:59.644Z,44.98
